KBBB/BBB METAR and TAF weather

Enter ICAO airport designator
Station Type Date Time Source
KBBB METAR 2018/04/21 20:55 UTC NOAA

KBBB 212055Z AUTO 20009KT 10SM CLR 14/02 A3034 RMK AO2


Station Type Date Time Source
KBBB Decoded METAR 2018/04/21 20:55 UTC NOAA

Benson Municipal, MN, United States (KBBB) 45-19N 095-39W
Apr 21, 2018 - 04:55 PM EDT / 2018.04.21 2055 UTC
Wind: from the SSW (200 degrees) at 10 MPH (9 KT):0
Visibility: 10 mile(s):0
Sky conditions: clear
Temperature: 57 F (14 C)
Dew Point: 35 F (2 C)
Relative Humidity: 44%
Pressure (altimeter): 30.34 in. Hg (1027 hPa)
ob: KBBB 212055Z AUTO 20009KT 10SM CLR 14/02 A3034 RMK AO2
cycle: 21

Station Type Date Time Source
KBBB TAF UTC NOAA

Error!


Example: see airport list